sensor_id;sensor_type;location;lat;lon;timestamp;P1;durP1;ratioP1;P2;durP2;ratioP2
40367;SDS011;26075;43.320;21.920;2024-01-06T00:00:57;75.28;;;48.58;;
40367;SDS011;26075;43.320;21.920;2024-01-06T00:05:57;63.20;;;42.22;;
40367;SDS011;26075;43.320;21.920;2024-01-06T00:11:00;58.40;;;35.72;;
40367;SDS011;26075;43.320;21.920;2024-01-06T00:16:03;50.67;;;29.35;;
40367;SDS011;26075;43.320;21.920;2024-01-06T00:21:03;45.78;;;29.75;;
40367;SDS011;26075;43.320;21.920;2024-01-06T00:26:04;46.20;;;28.60;;
40367;SDS011;26075;43.320;21.920;2024-01-06T00:31:06;39.38;;;24.35;;
40367;SDS011;26075;43.320;21.920;2024-01-06T00:36:07;58.80;;;34.70;;
40367;SDS011;26075;43.320;21.920;2024-01-06T00:41:08;73.22;;;43.63;;
40367;SDS011;26075;43.320;21.920;2024-01-06T00:46:09;92.45;;;58.75;;
40367;SDS011;26075;43.320;21.920;2024-01-06T00:51:10;84.63;;;53.33;;
40367;SDS011;26075;43.320;21.920;2024-01-06T00:56:11;77.45;;;48.17;;
40367;SDS011;26075;43.320;21.920;2024-01-06T01:01:11;65.97;;;42.83;;
40367;SDS011;26075;43.320;21.920;2024-01-06T01:06:12;58.15;;;38.80;;
40367;SDS011;26075;43.320;21.920;2024-01-06T01:11:13;69.78;;;44.42;;
40367;SDS011;26075;43.320;21.920;2024-01-06T01:16:14;67.70;;;42.97;;
40367;SDS011;26075;43.320;21.920;2024-01-06T01:21:14;71.32;;;45.22;;
40367;SDS011;26075;43.320;21.920;2024-01-06T01:26:15;54.67;;;34.15;;
40367;SDS011;26075;43.320;21.920;2024-01-06T01:31:16;73.32;;;40.38;;
40367;SDS011;26075;43.320;21.920;2024-01-06T01:36:16;61.65;;;37.97;;
40367;SDS011;26075;43.320;21.920;2024-01-06T01:41:18;64.90;;;40.35;;
40367;SDS011;26075;43.320;21.920;2024-01-06T01:46:19;65.70;;;43.58;;
40367;SDS011;26075;43.320;21.920;2024-01-06T01:51:20;59.88;;;38.47;;
40367;SDS011;26075;43.320;21.920;2024-01-06T01:56:21;55.50;;;33.10;;
40367;SDS011;26075;43.320;21.920;2024-01-06T02:01:23;50.40;;;31.92;;
40367;SDS011;26075;43.320;21.920;2024-01-06T02:06:24;57.05;;;36.75;;
40367;SDS011;26075;43.320;21.920;2024-01-06T02:11:24;54.20;;;33.17;;
40367;SDS011;26075;43.320;21.920;2024-01-06T02:16:25;54.45;;;34.65;;
40367;SDS011;26075;43.320;21.920;2024-01-06T02:21:27;57.50;;;37.58;;
40367;SDS011;26075;43.320;21.920;2024-01-06T02:26:28;46.97;;;30.77;;
40367;SDS011;26075;43.320;21.920;2024-01-06T02:31:29;83.22;;;42.78;;
40367;SDS011;26075;43.320;21.920;2024-01-06T02:36:30;63.78;;;35.38;;
40367;SDS011;26075;43.320;21.920;2024-01-06T02:41:30;47.67;;;29.98;;
40367;SDS011;26075;43.320;21.920;2024-01-06T02:46:31;46.42;;;29.10;;
40367;SDS011;26075;43.320;21.920;2024-01-06T02:51:32;51.45;;;30.48;;
40367;SDS011;26075;43.320;21.920;2024-01-06T02:56:33;48.60;;;32.15;;
40367;SDS011;26075;43.320;21.920;2024-01-06T03:01:33;49.88;;;30.48;;
40367;SDS011;26075;43.320;21.920;2024-01-06T03:06:34;40.75;;;23.90;;
40367;SDS011;26075;43.320;21.920;2024-01-06T03:11:35;28.58;;;17.50;;
40367;SDS011;26075;43.320;21.920;2024-01-06T03:16:36;23.90;;;15.48;;
40367;SDS011;26075;43.320;21.920;2024-01-06T03:21:37;28.77;;;18.40;;
40367;SDS011;26075;43.320;21.920;2024-01-06T03:26:38;27.83;;;16.75;;
40367;SDS011;26075;43.320;21.920;2024-01-06T03:31:42;37.80;;;20.90;;
40367;SDS011;26075;43.320;21.920;2024-01-06T03:36:46;31.08;;;16.95;;
40367;SDS011;26075;43.320;21.920;2024-01-06T03:41:48;31.25;;;18.40;;
40367;SDS011;26075;43.320;21.920;2024-01-06T03:46:49;34.83;;;22.08;;
40367;SDS011;26075;43.320;21.920;2024-01-06T03:51:50;33.13;;;19.70;;
40367;SDS011;26075;43.320;21.920;2024-01-06T03:56:50;40.67;;;24.00;;
40367;SDS011;26075;43.320;21.920;2024-01-06T04:01:52;39.30;;;23.58;;
40367;SDS011;26075;43.320;21.920;2024-01-06T04:06:53;54.85;;;31.83;;
40367;SDS011;26075;43.320;21.920;2024-01-06T04:11:53;52.33;;;31.77;;
40367;SDS011;26075;43.320;21.920;2024-01-06T04:16:54;58.60;;;36.42;;
40367;SDS011;26075;43.320;21.920;2024-01-06T04:21:56;52.95;;;33.92;;
40367;SDS011;26075;43.320;21.920;2024-01-06T04:26:58;52.30;;;34.33;;
40367;SDS011;26075;43.320;21.920;2024-01-06T04:31:58;50.38;;;30.15;;
40367;SDS011;26075;43.320;21.920;2024-01-06T04:36:59;45.63;;;30.38;;
40367;SDS011;26075;43.320;21.920;2024-01-06T04:42:00;50.60;;;35.53;;
40367;SDS011;26075;43.320;21.920;2024-01-06T04:47:00;55.35;;;35.67;;
40367;SDS011;26075;43.320;21.920;2024-01-06T04:52:01;54.88;;;34.00;;
40367;SDS011;26075;43.320;21.920;2024-01-06T04:57:02;46.30;;;27.42;;
40367;SDS011;26075;43.320;21.920;2024-01-06T05:02:04;54.55;;;33.33;;
40367;SDS011;26075;43.320;21.920;2024-01-06T05:07:05;58.08;;;33.83;;
40367;SDS011;26075;43.320;21.920;2024-01-06T05:12:06;58.47;;;36.20;;
40367;SDS011;26075;43.320;21.920;2024-01-06T05:17:07;55.97;;;34.33;;
40367;SDS011;26075;43.320;21.920;2024-01-06T05:22:09;51.00;;;31.52;;
40367;SDS011;26075;43.320;21.920;2024-01-06T05:27:10;54.35;;;31.70;;
40367;SDS011;26075;43.320;21.920;2024-01-06T05:32:10;36.97;;;23.60;;
40367;SDS011;26075;43.320;21.920;2024-01-06T05:37:11;37.65;;;22.45;;
40367;SDS011;26075;43.320;21.920;2024-01-06T05:42:12;39.97;;;22.17;;
40367;SDS011;26075;43.320;21.920;2024-01-06T05:47:14;32.08;;;20.63;;
40367;SDS011;26075;43.320;21.920;2024-01-06T05:52:16;34.80;;;20.90;;
40367;SDS011;26075;43.320;21.920;2024-01-06T05:57:17;29.45;;;16.48;;
40367;SDS011;26075;43.320;21.920;2024-01-06T06:02:18;29.75;;;16.00;;
40367;SDS011;26075;43.320;21.920;2024-01-06T06:07:19;20.50;;;12.70;;
40367;SDS011;26075;43.320;21.920;2024-01-06T06:12:20;20.27;;;11.25;;
40367;SDS011;26075;43.320;21.920;2024-01-06T06:17:21;17.42;;;9.32;;
40367;SDS011;26075;43.320;21.920;2024-01-06T06:22:21;14.60;;;9.02;;
40367;SDS011;26075;43.320;21.920;2024-01-06T06:27:23;17.67;;;8.85;;
40367;SDS011;26075;43.320;21.920;2024-01-06T06:32:24;14.18;;;7.13;;
40367;SDS011;26075;43.320;21.920;2024-01-06T06:37:25;12.43;;;6.75;;
40367;SDS011;26075;43.320;21.920;2024-01-06T06:42:25;13.30;;;6.97;;
40367;SDS011;26075;43.320;21.920;2024-01-06T06:47:26;12.93;;;7.53;;
40367;SDS011;26075;43.320;21.920;2024-01-06T06:52:27;10.25;;;6.55;;
40367;SDS011;26075;43.320;21.920;2024-01-06T06:57:27;14.00;;;9.30;;
40367;SDS011;26075;43.320;21.920;2024-01-06T07:02:29;14.80;;;8.93;;
40367;SDS011;26075;43.320;21.920;2024-01-06T07:07:29;21.30;;;11.63;;
40367;SDS011;26075;43.320;21.920;2024-01-06T07:12:30;31.52;;;18.77;;
40367;SDS011;26075;43.320;21.920;2024-01-06T07:17:31;31.83;;;21.05;;
40367;SDS011;26075;43.320;21.920;2024-01-06T07:22:32;35.78;;;21.20;;
40367;SDS011;26075;43.320;21.920;2024-01-06T07:27:36;43.83;;;24.52;;
40367;SDS011;26075;43.320;21.920;2024-01-06T07:32:37;53.50;;;31.13;;
40367;SDS011;26075;43.320;21.920;2024-01-06T07:37:38;67.00;;;40.85;;
40367;SDS011;26075;43.320;21.920;2024-01-06T07:42:38;59.60;;;36.90;;
40367;SDS011;26075;43.320;21.920;2024-01-06T07:47:39;68.95;;;43.38;;
40367;SDS011;26075;43.320;21.920;2024-01-06T07:52:41;67.63;;;39.55;;
40367;SDS011;26075;43.320;21.920;2024-01-06T07:57:42;63.92;;;38.05;;
40367;SDS011;26075;43.320;21.920;2024-01-06T08:02:42;65.28;;;36.95;;
40367;SDS011;26075;43.320;21.920;2024-01-06T08:07:43;64.13;;;37.20;;
40367;SDS011;26075;43.320;21.920;2024-01-06T08:12:44;54.17;;;29.80;;
40367;SDS011;26075;43.320;21.920;2024-01-06T08:17:56;54.88;;;34.45;;
40367;SDS011;26075;43.320;21.920;2024-01-06T08:22:56;77.50;;;55.28;;
40367;SDS011;26075;43.320;21.920;2024-01-06T08:27:57;75.32;;;54.53;;
40367;SDS011;26075;43.320;21.920;2024-01-06T08:33:01;82.32;;;53.92;;
40367;SDS011;26075;43.320;21.920;2024-01-06T08:38:02;85.03;;;55.38;;
40367;SDS011;26075;43.320;21.920;2024-01-06T08:43:03;62.35;;;42.20;;
40367;SDS011;26075;43.320;21.920;2024-01-06T08:48:06;77.88;;;49.78;;
40367;SDS011;26075;43.320;21.920;2024-01-06T08:53:07;80.72;;;52.20;;
40367;SDS011;26075;43.320;21.920;2024-01-06T08:58:08;66.97;;;45.17;;
40367;SDS011;26075;43.320;21.920;2024-01-06T09:03:09;86.30;;;50.95;;
40367;SDS011;26075;43.320;21.920;2024-01-06T09:14:04;95.15;;;61.42;;
40367;SDS011;26075;43.320;21.920;2024-01-06T09:19:05;103.68;;;64.07;;
40367;SDS011;26075;43.320;21.920;2024-01-06T09:24:06;97.35;;;60.67;;
40367;SDS011;26075;43.320;21.920;2024-01-06T09:29:06;105.32;;;62.55;;
40367;SDS011;26075;43.320;21.920;2024-01-06T09:34:09;98.05;;;64.22;;
40367;SDS011;26075;43.320;21.920;2024-01-06T09:39:10;109.90;;;67.32;;
40367;SDS011;26075;43.320;21.920;2024-01-06T09:44:11;121.10;;;77.28;;
40367;SDS011;26075;43.320;21.920;2024-01-06T09:49:11;118.10;;;73.63;;
40367;SDS011;26075;43.320;21.920;2024-01-06T09:54:14;120.05;;;72.95;;
40367;SDS011;26075;43.320;21.920;2024-01-06T09:59:17;115.72;;;72.72;;
40367;SDS011;26075;43.320;21.920;2024-01-06T10:04:19;112.68;;;65.10;;
40367;SDS011;26075;43.320;21.920;2024-01-06T10:09:25;93.97;;;58.85;;
40367;SDS011;26075;43.320;21.920;2024-01-06T10:14:27;101.38;;;59.03;;
40367;SDS011;26075;43.320;21.920;2024-01-06T10:19:28;94.10;;;58.15;;
40367;SDS011;26075;43.320;21.920;2024-01-06T10:24:29;85.10;;;51.83;;
40367;SDS011;26075;43.320;21.920;2024-01-06T10:29:31;79.20;;;47.90;;
40367;SDS011;26075;43.320;21.920;2024-01-06T10:34:32;91.05;;;51.75;;
40367;SDS011;26075;43.320;21.920;2024-01-06T10:39:33;84.13;;;54.75;;
40367;SDS011;26075;43.320;21.920;2024-01-06T10:44:35;90.47;;;58.45;;
40367;SDS011;26075;43.320;21.920;2024-01-06T10:49:37;97.60;;;63.20;;
40367;SDS011;26075;43.320;21.920;2024-01-06T10:54:39;100.95;;;62.60;;
40367;SDS011;26075;43.320;21.920;2024-01-06T10:59:40;103.63;;;69.57;;
40367;SDS011;26075;43.320;21.920;2024-01-06T11:04:42;110.80;;;69.75;;
40367;SDS011;26075;43.320;21.920;2024-01-06T11:09:46;111.10;;;74.15;;
40367;SDS011;26075;43.320;21.920;2024-01-06T11:14:50;424.27;;;161.25;;
40367;SDS011;26075;43.320;21.920;2024-01-06T11:19:51;187.23;;;97.20;;
40367;SDS011;26075;43.320;21.920;2024-01-06T11:24:55;130.15;;;86.03;;
40367;SDS011;26075;43.320;21.920;2024-01-06T11:29:57;115.32;;;80.30;;
40367;SDS011;26075;43.320;21.920;2024-01-06T11:35:33;106.80;;;74.60;;
40367;SDS011;26075;43.320;21.920;2024-01-06T11:40:36;100.72;;;68.80;;
40367;SDS011;26075;43.320;21.920;2024-01-06T11:45:38;76.88;;;52.75;;
40367;SDS011;26075;43.320;21.920;2024-01-06T11:50:41;83.72;;;54.78;;
40367;SDS011;26075;43.320;21.920;2024-01-06T11:55:43;102.28;;;66.20;;
40367;SDS011;26075;43.320;21.920;2024-01-06T12:00:44;68.40;;;48.42;;
40367;SDS011;26075;43.320;21.920;2024-01-06T12:06:01;96.15;;;68.50;;
40367;SDS011;26075;43.320;21.920;2024-01-06T12:11:03;107.13;;;71.97;;
40367;SDS011;26075;43.320;21.920;2024-01-06T12:16:04;105.90;;;74.50;;
40367;SDS011;26075;43.320;21.920;2024-01-06T12:21:05;107.90;;;76.38;;
40367;SDS011;26075;43.320;21.920;2024-01-06T12:26:07;104.38;;;76.75;;
40367;SDS011;26075;43.320;21.920;2024-01-06T12:31:09;115.55;;;79.97;;
40367;SDS011;26075;43.320;21.920;2024-01-06T12:36:12;133.88;;;96.75;;
40367;SDS011;26075;43.320;21.920;2024-01-06T12:41:13;134.35;;;96.82;;
40367;SDS011;26075;43.320;21.920;2024-01-06T12:46:14;115.95;;;81.68;;
40367;SDS011;26075;43.320;21.920;2024-01-06T12:51:15;93.07;;;65.20;;
40367;SDS011;26075;43.320;21.920;2024-01-06T12:56:16;97.20;;;68.63;;
40367;SDS011;26075;43.320;21.920;2024-01-06T13:01:17;102.05;;;66.82;;
40367;SDS011;26075;43.320;21.920;2024-01-06T13:06:19;97.65;;;64.70;;
40367;SDS011;26075;43.320;21.920;2024-01-06T13:11:20;80.97;;;51.80;;
40367;SDS011;26075;43.320;21.920;2024-01-06T13:16:21;81.82;;;52.83;;
40367;SDS011;26075;43.320;21.920;2024-01-06T13:21:22;71.70;;;48.10;;
40367;SDS011;26075;43.320;21.920;2024-01-06T13:26:24;64.70;;;43.65;;
40367;SDS011;26075;43.320;21.920;2024-01-06T13:31:25;67.72;;;45.50;;
40367;SDS011;26075;43.320;21.920;2024-01-06T13:36:26;61.25;;;41.65;;
40367;SDS011;26075;43.320;21.920;2024-01-06T13:41:28;68.72;;;45.85;;
40367;SDS011;26075;43.320;21.920;2024-01-06T13:46:30;56.33;;;36.45;;
40367;SDS011;26075;43.320;21.920;2024-01-06T13:51:31;80.85;;;52.63;;
40367;SDS011;26075;43.320;21.920;2024-01-06T13:56:32;65.72;;;45.25;;
40367;SDS011;26075;43.320;21.920;2024-01-06T14:01:34;48.15;;;30.10;;
40367;SDS011;26075;43.320;21.920;2024-01-06T14:06:35;70.25;;;49.03;;
40367;SDS011;26075;43.320;21.920;2024-01-06T14:11:37;86.68;;;59.38;;
40367;SDS011;26075;43.320;21.920;2024-01-06T14:16:39;56.15;;;40.13;;
40367;SDS011;26075;43.320;21.920;2024-01-06T14:21:40;69.60;;;48.30;;
40367;SDS011;26075;43.320;21.920;2024-01-06T14:26:41;68.95;;;48.92;;
40367;SDS011;26075;43.320;21.920;2024-01-06T14:31:42;102.32;;;65.93;;
40367;SDS011;26075;43.320;21.920;2024-01-06T14:36:43;130.23;;;89.70;;
40367;SDS011;26075;43.320;21.920;2024-01-06T14:41:47;114.93;;;83.38;;
40367;SDS011;26075;43.320;21.920;2024-01-06T14:46:49;129.63;;;92.18;;
40367;SDS011;26075;43.320;21.920;2024-01-06T14:51:50;148.38;;;102.32;;
40367;SDS011;26075;43.320;21.920;2024-01-06T14:56:51;140.60;;;95.47;;
40367;SDS011;26075;43.320;21.920;2024-01-06T15:01:53;133.85;;;90.63;;
40367;SDS011;26075;43.320;21.920;2024-01-06T15:06:54;131.68;;;90.50;;
40367;SDS011;26075;43.320;21.920;2024-01-06T15:11:55;159.18;;;105.40;;
40367;SDS011;26075;43.320;21.920;2024-01-06T15:16:57;184.38;;;121.63;;
40367;SDS011;26075;43.320;21.920;2024-01-06T15:21:58;180.52;;;128.00;;
40367;SDS011;26075;43.320;21.920;2024-01-06T15:26:59;197.60;;;132.38;;
40367;SDS011;26075;43.320;21.920;2024-01-06T15:32:00;203.88;;;135.48;;
40367;SDS011;26075;43.320;21.920;2024-01-06T15:37:01;209.45;;;135.75;;
40367;SDS011;26075;43.320;21.920;2024-01-06T15:42:02;201.35;;;132.02;;
40367;SDS011;26075;43.320;21.920;2024-01-06T15:47:03;188.00;;;123.28;;
40367;SDS011;26075;43.320;21.920;2024-01-06T15:52:05;174.23;;;113.30;;
40367;SDS011;26075;43.320;21.920;2024-01-06T15:57:07;162.93;;;109.72;;
40367;SDS011;26075;43.320;21.920;2024-01-06T16:02:09;123.28;;;81.93;;
40367;SDS011;26075;43.320;21.920;2024-01-06T16:07:11;131.23;;;89.55;;
40367;SDS011;26075;43.320;21.920;2024-01-06T16:12:12;101.40;;;63.55;;
40367;SDS011;26075;43.320;21.920;2024-01-06T16:17:13;89.30;;;57.45;;
40367;SDS011;26075;43.320;21.920;2024-01-06T16:22:14;66.15;;;42.97;;
40367;SDS011;26075;43.320;21.920;2024-01-06T16:27:15;55.78;;;36.25;;
40367;SDS011;26075;43.320;21.920;2024-01-06T16:32:17;42.75;;;26.52;;
40367;SDS011;26075;43.320;21.920;2024-01-06T16:37:18;26.52;;;17.27;;
40367;SDS011;26075;43.320;21.920;2024-01-06T16:42:19;18.00;;;12.38;;
40367;SDS011;26075;43.320;21.920;2024-01-06T16:47:20;19.10;;;12.35;;
40367;SDS011;26075;43.320;21.920;2024-01-06T16:52:21;22.88;;;13.75;;
40367;SDS011;26075;43.320;21.920;2024-01-06T16:57:22;25.13;;;13.52;;
40367;SDS011;26075;43.320;21.920;2024-01-06T17:02:23;22.20;;;13.32;;
40367;SDS011;26075;43.320;21.920;2024-01-06T17:07:24;25.45;;;12.73;;
40367;SDS011;26075;43.320;21.920;2024-01-06T17:12:26;23.90;;;15.55;;
40367;SDS011;26075;43.320;21.920;2024-01-06T17:17:27;25.50;;;16.15;;
40367;SDS011;26075;43.320;21.920;2024-01-06T17:22:28;32.33;;;17.42;;
40367;SDS011;26075;43.320;21.920;2024-01-06T17:27:29;25.23;;;14.88;;
40367;SDS011;26075;43.320;21.920;2024-01-06T17:32:31;26.63;;;15.02;;
40367;SDS011;26075;43.320;21.920;2024-01-06T17:37:33;33.55;;;14.77;;
40367;SDS011;26075;43.320;21.920;2024-01-06T17:42:34;24.02;;;12.90;;
40367;SDS011;26075;43.320;21.920;2024-01-06T17:47:35;22.17;;;14.80;;
40367;SDS011;26075;43.320;21.920;2024-01-06T17:52:37;26.15;;;16.73;;
40367;SDS011;26075;43.320;21.920;2024-01-06T17:57:38;30.33;;;18.80;;
40367;SDS011;26075;43.320;21.920;2024-01-06T18:02:40;28.42;;;18.55;;
40367;SDS011;26075;43.320;21.920;2024-01-06T18:07:43;28.65;;;19.08;;
40367;SDS011;26075;43.320;21.920;2024-01-06T18:12:44;28.17;;;18.77;;
40367;SDS011;26075;43.320;21.920;2024-01-06T18:17:45;30.45;;;18.27;;
40367;SDS011;26075;43.320;21.920;2024-01-06T18:22:47;32.92;;;20.38;;
40367;SDS011;26075;43.320;21.920;2024-01-06T18:27:48;27.48;;;19.10;;
40367;SDS011;26075;43.320;21.920;2024-01-06T18:32:49;32.17;;;21.15;;
40367;SDS011;26075;43.320;21.920;2024-01-06T18:37:52;32.17;;;19.77;;
40367;SDS011;26075;43.320;21.920;2024-01-06T18:42:53;27.80;;;17.45;;
40367;SDS011;26075;43.320;21.920;2024-01-06T18:47:55;29.73;;;18.95;;
40367;SDS011;26075;43.320;21.920;2024-01-06T18:52:56;32.72;;;20.10;;
40367;SDS011;26075;43.320;21.920;2024-01-06T18:57:57;32.30;;;21.33;;
40367;SDS011;26075;43.320;21.920;2024-01-06T19:02:59;47.08;;;27.27;;
40367;SDS011;26075;43.320;21.920;2024-01-06T19:08:00;37.55;;;22.40;;
40367;SDS011;26075;43.320;21.920;2024-01-06T19:13:01;34.50;;;22.55;;
40367;SDS011;26075;43.320;21.920;2024-01-06T19:18:02;31.85;;;21.70;;
40367;SDS011;26075;43.320;21.920;2024-01-06T19:23:04;38.70;;;21.38;;
40367;SDS011;26075;43.320;21.920;2024-01-06T19:28:05;32.00;;;22.10;;
40367;SDS011;26075;43.320;21.920;2024-01-06T19:33:06;36.35;;;24.48;;
40367;SDS011;26075;43.320;21.920;2024-01-06T19:38:08;31.80;;;23.10;;
40367;SDS011;26075;43.320;21.920;2024-01-06T19:43:10;37.30;;;23.50;;
40367;SDS011;26075;43.320;21.920;2024-01-06T19:48:11;35.72;;;24.55;;
40367;SDS011;26075;43.320;21.920;2024-01-06T19:53:12;29.67;;;20.75;;
40367;SDS011;26075;43.320;21.920;2024-01-06T19:58:13;29.23;;;19.65;;
40367;SDS011;26075;43.320;21.920;2024-01-06T20:03:14;24.73;;;13.57;;
40367;SDS011;26075;43.320;21.920;2024-01-06T20:08:15;17.85;;;12.45;;
40367;SDS011;26075;43.320;21.920;2024-01-06T20:13:16;15.90;;;8.75;;
40367;SDS011;26075;43.320;21.920;2024-01-06T20:18:17;13.13;;;7.55;;
40367;SDS011;26075;43.320;21.920;2024-01-06T20:23:18;13.00;;;7.93;;
40367;SDS011;26075;43.320;21.920;2024-01-06T20:28:20;13.57;;;6.80;;
40367;SDS011;26075;43.320;21.920;2024-01-06T20:33:21;12.70;;;6.45;;
40367;SDS011;26075;43.320;21.920;2024-01-06T20:38:22;11.85;;;7.10;;
40367;SDS011;26075;43.320;21.920;2024-01-06T20:43:23;15.63;;;7.18;;
40367;SDS011;26075;43.320;21.920;2024-01-06T20:48:24;14.05;;;6.97;;
40367;SDS011;26075;43.320;21.920;2024-01-06T20:53:26;11.85;;;7.25;;
40367;SDS011;26075;43.320;21.920;2024-01-06T20:58:27;14.68;;;8.60;;
40367;SDS011;26075;43.320;21.920;2024-01-06T21:03:28;12.60;;;8.27;;
40367;SDS011;26075;43.320;21.920;2024-01-06T21:08:29;15.35;;;8.30;;
40367;SDS011;26075;43.320;21.920;2024-01-06T21:13:30;11.88;;;7.50;;
40367;SDS011;26075;43.320;21.920;2024-01-06T21:18:31;13.40;;;6.90;;
40367;SDS011;26075;43.320;21.920;2024-01-06T21:23:32;11.90;;;6.97;;
40367;SDS011;26075;43.320;21.920;2024-01-06T21:28:33;10.25;;;6.50;;
40367;SDS011;26075;43.320;21.920;2024-01-06T21:33:35;10.82;;;7.57;;
40367;SDS011;26075;43.320;21.920;2024-01-06T21:38:36;12.80;;;6.72;;
40367;SDS011;26075;43.320;21.920;2024-01-06T21:43:37;14.27;;;7.80;;
40367;SDS011;26075;43.320;21.920;2024-01-06T21:48:38;12.02;;;7.13;;
40367;SDS011;26075;43.320;21.920;2024-01-06T21:53:39;15.02;;;6.68;;
40367;SDS011;26075;43.320;21.920;2024-01-06T21:58:40;12.98;;;7.22;;
40367;SDS011;26075;43.320;21.920;2024-01-06T22:03:41;13.95;;;6.90;;
40367;SDS011;26075;43.320;21.920;2024-01-06T22:08:42;12.18;;;5.55;;
40367;SDS011;26075;43.320;21.920;2024-01-06T22:13:43;14.25;;;6.25;;
40367;SDS011;26075;43.320;21.920;2024-01-06T22:18:44;10.77;;;6.55;;
40367;SDS011;26075;43.320;21.920;2024-01-06T22:23:46;10.85;;;6.05;;
40367;SDS011;26075;43.320;21.920;2024-01-06T22:28:48;12.07;;;6.47;;
40367;SDS011;26075;43.320;21.920;2024-01-06T22:33:49;12.10;;;6.55;;
40367;SDS011;26075;43.320;21.920;2024-01-06T22:38:50;10.20;;;6.10;;
40367;SDS011;26075;43.320;21.920;2024-01-06T22:43:51;10.88;;;5.72;;
40367;SDS011;26075;43.320;21.920;2024-01-06T22:48:52;9.05;;;5.55;;
40367;SDS011;26075;43.320;21.920;2024-01-06T22:53:54;8.55;;;5.50;;
40367;SDS011;26075;43.320;21.920;2024-01-06T22:58:55;10.23;;;5.32;;
40367;SDS011;26075;43.320;21.920;2024-01-06T23:03:56;29.73;;;22.55;;
40367;SDS011;26075;43.320;21.920;2024-01-06T23:08:57;9.30;;;4.75;;
40367;SDS011;26075;43.320;21.920;2024-01-06T23:13:58;9.57;;;4.60;;
40367;SDS011;26075;43.320;21.920;2024-01-06T23:18:59;9.25;;;4.85;;
40367;SDS011;26075;43.320;21.920;2024-01-06T23:24:00;10.88;;;4.90;;
40367;SDS011;26075;43.320;21.920;2024-01-06T23:29:02;10.25;;;5.95;;
40367;SDS011;26075;43.320;21.920;2024-01-06T23:34:04;11.27;;;5.70;;
40367;SDS011;26075;43.320;21.920;2024-01-06T23:39:05;9.57;;;5.32;;
40367;SDS011;26075;43.320;21.920;2024-01-06T23:44:06;9.30;;;5.55;;
40367;SDS011;26075;43.320;21.920;2024-01-06T23:49:07;9.15;;;5.30;;
40367;SDS011;26075;43.320;21.920;2024-01-06T23:54:08;11.48;;;5.88;;
40367;SDS011;26075;43.320;21.920;2024-01-06T23:59:09;10.77;;;5.25;;
